PWSweather.com
Personal Weather Stations
Station Observations
DEKREUPEL
Wsv De Kreupel, AndijkNL 1619 JV

Wsv De KreupelAndijkNL 1619 JV

Lat: 52.7417364, Lon: 5.1809356

Elevation: 33

Station Type: Rainwise MKiii LR

High Low Average
Temperature 66.0°F18.9°C 60.0°F15.6°C 63.4°F17.4°C
Dew Point 94.7°F34.8°C 87.9°F31.1°C 91.7°F33.2°C
Winds 32.4 mph 52.1 kmh Calm Calm 10.0 mph SW16.1 kmh SW
Wind Gusts 77.1 mph124.1 kmh -- 15.0 mph24.1 kmh
Humidity - - -
Pressure 30.09 in1019.0 mb 29.74 in1007.1 mb -
Precipitation 0.19 in4.8 mm - -
Hour Temp Dew Point Humidity Winds Wind Gusts Pressure Precip Precip Rate Daily Precip Total
12:04 AM 61.8°F16.6°C 89.8°F32.1°C - 13.8 mph WNW22.2 kmh WNW 15.9 mph25.6 kmh 29.76 in1007.8 mb 0.00 in0.0 mm 0.00 in0.0 mm 0.06 in1.5 mm
12:09 AM 61.7°F16.5°C 89.9°F32.2°C - 14.8 mph WNW23.8 kmh WNW 17.4 mph28.0 kmh 29.76 in1007.8 mb 0.00 in0.0 mm 0.00 in0.0 mm 0.07 in1.8 mm
12:14 AM 61.7°F16.5°C 89.9°F32.2°C - 15.5 mph WNW24.9 kmh WNW 17.8 mph28.6 kmh 29.76 in1007.8 mb 0.00 in0.0 mm 0.00 in0.0 mm 0.08 in2.0 mm
12:19 AM 61.7°F16.5°C 89.9°F32.2°C - 14.5 mph WNW23.3 kmh WNW 17.5 mph28.2 kmh 29.76 in1007.8 mb 0.00 in0.0 mm 0.00 in0.0 mm 0.08 in2.0 mm
12:24 AM 61.6°F16.4°C 89.7°F32.1°C - 14.0 mph WNW22.5 kmh WNW 16.5 mph26.6 kmh 29.76 in1007.8 mb 0.00 in0.0 mm 0.00 in0.0 mm 0.09 in2.3 mm
12:29 AM 61.6°F16.4°C 89.7°F32.1°C - 14.3 mph WNW23.0 kmh WNW 16.8 mph27.0 kmh 29.76 in1007.8 mb 0.00 in0.0 mm 0.00 in0.0 mm 0.10 in2.5 mm
12:34 AM 61.7°F16.5°C 89.9°F32.2°C - 12.8 mph WNW20.6 kmh WNW 14.5 mph23.3 kmh 29.76 in1007.8 mb 0.00 in0.0 mm 0.00 in0.0 mm 0.11 in2.8 mm
12:39 AM 61.7°F16.5°C 89.7°F32.1°C - 13.3 mph WNW21.4 kmh WNW 15.1 mph24.3 kmh 29.76 in1007.8 mb 0.00 in0.0 mm 0.00 in0.0 mm 0.11 in2.8 mm
12:44 AM 61.7°F16.5°C 89.9°F32.2°C - 14.2 mph WNW22.9 kmh WNW 16.6 mph26.7 kmh 29.76 in1007.8 mb 0.00 in0.0 mm 0.00 in0.0 mm 0.12 in3.0 mm
12:49 AM 61.7°F16.5°C 89.9°F32.2°C - 15.0 mph WNW24.1 kmh WNW 17.7 mph28.5 kmh 29.76 in1007.8 mb 0.00 in0.0 mm 0.00 in0.0 mm 0.12 in3.0 mm
12:54 AM 61.6°F16.4°C 89.6°F32.0°C - 14.8 mph NW23.8 kmh NW 18.1 mph29.1 kmh 29.76 in1007.8 mb 0.00 in0.0 mm 0.00 in0.0 mm 0.12 in3.0 mm
12:59 AM 61.7°F16.5°C 89.9°F32.2°C - 15.3 mph NW24.6 kmh NW 18.5 mph29.8 kmh 29.75 in1007.5 mb 0.00 in0.0 mm 0.00 in0.0 mm 0.12 in3.0 mm
01:04 AM 61.6°F16.4°C 89.7°F32.1°C - 16.1 mph NW25.9 kmh NW 18.9 mph30.4 kmh 29.75 in1007.5 mb 0.00 in0.0 mm 0.00 in0.0 mm 0.13 in3.3 mm
01:09 AM 61.3°F16.3°C 89.4°F31.9°C - 15.3 mph NW24.6 kmh NW 17.8 mph28.6 kmh 29.76 in1007.8 mb 0.00 in0.0 mm 0.00 in0.0 mm 0.13 in3.3 mm
01:14 AM 61.5°F16.4°C 89.6°F32.0°C - 14.5 mph NW23.3 kmh NW 16.7 mph26.9 kmh 29.76 in1007.8 mb 0.00 in0.0 mm 0.00 in0.0 mm 0.13 in3.3 mm
01:19 AM 61.6°F16.4°C 89.7°F32.1°C - 14.3 mph NW23.0 kmh NW 16.2 mph26.1 kmh 29.75 in1007.5 mb 0.00 in0.0 mm 0.00 in0.0 mm 0.13 in3.3 mm
01:24 AM 61.6°F16.4°C 89.6°F32.0°C - 13.7 mph NW22.0 kmh NW 16.7 mph26.9 kmh 29.76 in1007.8 mb 0.00 in0.0 mm 0.00 in0.0 mm 0.13 in3.3 mm
01:29 AM 61.6°F16.4°C 89.6°F32.0°C - 14.2 mph NW22.9 kmh NW 17.0 mph27.4 kmh 29.75 in1007.5 mb 0.00 in0.0 mm 0.00 in0.0 mm 0.13 in3.3 mm
01:34 AM 61.6°F16.4°C 89.7°F32.1°C - 13.2 mph NW21.2 kmh NW 16.0 mph25.7 kmh 29.76 in1007.8 mb 0.00 in0.0 mm 0.00 in0.0 mm 0.13 in3.3 mm
01:39 AM 61.6°F16.4°C 89.6°F32.0°C - 13.7 mph NW22.0 kmh NW 16.4 mph26.4 kmh 29.76 in1007.8 mb 0.00 in0.0 mm 0.00 in0.0 mm 0.13 in3.3 mm
01:44 AM 61.8°F16.6°C 90.0°F32.2°C - 12.8 mph NW20.6 kmh NW 15.8 mph25.4 kmh 29.76 in1007.8 mb 0.00 in0.0 mm 0.00 in0.0 mm 0.14 in3.6 mm
01:49 AM 61.8°F16.6°C 90.0°F32.2°C - 14.1 mph NW22.7 kmh NW 16.5 mph26.6 kmh 29.76 in1007.8 mb 0.00 in0.0 mm 0.00 in0.0 mm 0.14 in3.6 mm
01:54 AM 61.7°F16.5°C 89.9°F32.2°C - 13.1 mph NW21.1 kmh NW 15.0 mph24.1 kmh 29.76 in1007.8 mb 0.00 in0.0 mm 0.00 in0.0 mm 0.14 in3.6 mm
01:59 AM 61.9°F16.6°C 90.0°F32.2°C - 12.9 mph NW20.8 kmh NW 15.4 mph24.8 kmh 29.76 in1007.8 mb 0.00 in0.0 mm 0.00 in0.0 mm 0.14 in3.6 mm
02:04 AM 62.0°F16.7°C 90.1°F32.3°C - 14.4 mph NW23.2 kmh NW 18.2 mph29.3 kmh 29.75 in1007.5 mb 0.00 in0.0 mm 0.00 in0.0 mm 0.14 in3.6 mm
02:09 AM 61.7°F16.5°C 89.9°F32.2°C - 15.8 mph NW25.4 kmh NW 21.1 mph34.0 kmh 29.76 in1007.8 mb 0.00 in0.0 mm 0.00 in0.0 mm 0.14 in3.6 mm
02:14 AM 61.7°F16.5°C 89.9°F32.2°C - 14.5 mph NW23.3 kmh NW 17.6 mph28.3 kmh 29.76 in1007.8 mb 0.00 in0.0 mm 0.00 in0.0 mm 0.15 in3.8 mm
02:19 AM 61.8°F16.6°C 90.0°F32.2°C - 14.1 mph NW22.7 kmh NW 15.9 mph25.6 kmh 29.76 in1007.8 mb 0.00 in0.0 mm 0.00 in0.0 mm 0.15 in3.8 mm
02:24 AM 61.8°F16.6°C 89.8°F32.1°C - 13.2 mph NW21.2 kmh NW 16.1 mph25.9 kmh 29.76 in1007.8 mb 0.00 in0.0 mm 0.00 in0.0 mm 0.15 in3.8 mm
02:29 AM 62.0°F16.7°C 90.2°F32.3°C - 12.5 mph NW20.1 kmh NW 14.6 mph23.5 kmh 29.76 in1007.8 mb 0.00 in0.0 mm 0.00 in0.0 mm 0.15 in3.8 mm
02:34 AM 62.1°F16.7°C 90.3°F32.4°C - 13.4 mph NW21.6 kmh NW 16.7 mph26.9 kmh 29.75 in1007.5 mb 0.00 in0.0 mm 0.00 in0.0 mm 0.15 in3.8 mm
02:39 AM 62.2°F16.8°C 90.4°F32.4°C - 13.7 mph NW22.0 kmh NW 16.4 mph26.4 kmh 29.75 in1007.5 mb 0.00 in0.0 mm 0.00 in0.0 mm 0.15 in3.8 mm
02:44 AM 62.2°F16.8°C 90.4°F32.4°C - 14.0 mph NW22.5 kmh NW 16.0 mph25.7 kmh 29.75 in1007.5 mb 0.00 in0.0 mm 0.00 in0.0 mm 0.15 in3.8 mm
02:49 AM 62.2°F16.8°C 90.4°F32.4°C - 14.0 mph NW22.5 kmh NW 17.1 mph27.5 kmh 29.75 in1007.5 mb 0.00 in0.0 mm 0.00 in0.0 mm 0.15 in3.8 mm
02:54 AM 62.3°F16.8°C 90.5°F32.5°C - 14.3 mph NW23.0 kmh NW 18.9 mph30.4 kmh 29.75 in1007.5 mb 0.00 in0.0 mm 0.00 in0.0 mm 0.15 in3.8 mm
02:59 AM 62.2°F16.8°C 90.4°F32.4°C - 13.8 mph NW22.2 kmh NW 17.8 mph28.6 kmh 29.75 in1007.5 mb 0.00 in0.0 mm 0.00 in0.0 mm 0.15 in3.8 mm
03:04 AM 62.2°F16.8°C 90.4°F32.4°C - 12.7 mph WNW20.4 kmh WNW 19.2 mph30.9 kmh 29.75 in1007.5 mb 0.00 in0.0 mm 0.00 in0.0 mm 0.16 in4.1 mm
03:09 AM 62.2°F16.8°C 90.3°F32.4°C - 12.3 mph NW19.8 kmh NW 17.8 mph28.6 kmh 29.75 in1007.5 mb 0.00 in0.0 mm 0.00 in0.0 mm 0.16 in4.1 mm
03:14 AM 62.4°F16.9°C 90.5°F32.5°C - 12.6 mph NW20.3 kmh NW 16.7 mph26.9 kmh 29.75 in1007.5 mb 0.00 in0.0 mm 0.00 in0.0 mm 0.16 in4.1 mm
03:19 AM 62.6°F17.0°C 90.7°F32.6°C - 13.5 mph NW21.7 kmh NW 17.4 mph28.0 kmh 29.74 in1007.1 mb 0.00 in0.0 mm 0.00 in0.0 mm 0.16 in4.1 mm
03:24 AM 62.7°F17.1°C 91.0°F32.8°C - 14.1 mph NW22.7 kmh NW 18.1 mph29.1 kmh 29.74 in1007.1 mb 0.00 in0.0 mm 0.00 in0.0 mm 0.16 in4.1 mm
03:29 AM 62.8°F17.1°C 91.1°F32.8°C - 14.1 mph NW22.7 kmh NW 17.3 mph27.8 kmh 29.74 in1007.1 mb 0.00 in0.0 mm 0.00 in0.0 mm 0.16 in4.1 mm
03:34 AM 63.0°F17.2°C 91.2°F32.9°C - 14.4 mph NW23.2 kmh NW 16.7 mph26.9 kmh 29.74 in1007.1 mb 0.00 in0.0 mm 0.00 in0.0 mm 0.16 in4.1 mm
03:39 AM 63.1°F17.3°C 91.4°F33.0°C - 15.4 mph NW24.8 kmh NW 20.0 mph32.2 kmh 29.74 in1007.1 mb 0.00 in0.0 mm 0.00 in0.0 mm 0.16 in4.1 mm
03:44 AM 63.2°F17.3°C 91.5°F33.1°C - 17.8 mph NNW28.6 kmh NNW 23.3 mph37.5 kmh 29.74 in1007.1 mb 0.00 in0.0 mm 0.00 in0.0 mm 0.17 in4.3 mm
03:49 AM 63.3°F17.4°C 91.7°F33.2°C - 14.7 mph NNW23.7 kmh NNW 17.2 mph27.7 kmh 29.74 in1007.1 mb 0.00 in0.0 mm 0.00 in0.0 mm 0.18 in4.6 mm
03:54 AM 63.5°F17.5°C 91.9°F33.3°C - 14.8 mph NW23.8 kmh NW 18.5 mph29.8 kmh 29.74 in1007.1 mb 0.00 in0.0 mm 0.00 in0.0 mm 0.18 in4.6 mm
03:59 AM 63.7°F17.6°C 92.1°F33.4°C - 18.0 mph N29.0 kmh N 21.3 mph34.3 kmh 29.74 in1007.1 mb 0.00 in0.0 mm 0.00 in0.0 mm 0.18 in4.6 mm
04:04 AM 63.7°F17.6°C 92.1°F33.4°C - 19.4 mph N31.2 kmh N 22.5 mph36.2 kmh 29.74 in1007.1 mb 0.00 in0.0 mm 0.00 in0.0 mm 0.18 in4.6 mm
04:09 AM 64.0°F17.8°C 92.4°F33.6°C - 20.7 mph N33.3 kmh N 24.2 mph38.9 kmh 29.74 in1007.1 mb 0.00 in0.0 mm 0.00 in0.0 mm 0.19 in4.8 mm
04:14 AM 64.0°F17.8°C 92.4°F33.6°C - 20.3 mph NNE32.7 kmh NNE 28.4 mph45.7 kmh 29.74 in1007.1 mb 0.00 in0.0 mm 0.00 in0.0 mm 0.19 in4.8 mm
04:19 AM 64.0°F17.8°C 92.4°F33.6°C - 20.3 mph NNE32.7 kmh NNE 28.5 mph45.9 kmh 29.74 in1007.1 mb 0.00 in0.0 mm 0.00 in0.0 mm 0.19 in4.8 mm
04:24 AM 64.0°F17.8°C 92.4°F33.6°C - 18.9 mph NNE30.4 kmh NNE 23.2 mph37.3 kmh 29.74 in1007.1 mb 0.00 in0.0 mm 0.00 in0.0 mm 0.19 in4.8 mm
04:29 AM 64.0°F17.8°C 92.4°F33.6°C - 16.3 mph NNE26.2 kmh NNE 21.1 mph34.0 kmh 29.75 in1007.5 mb 0.00 in0.0 mm 0.00 in0.0 mm 0.19 in4.8 mm
04:34 AM 63.8°F17.7°C 92.2°F33.4°C - 17.5 mph NNE28.2 kmh NNE 22.7 mph36.5 kmh 29.75 in1007.5 mb 0.00 in0.0 mm 0.00 in0.0 mm 0.19 in4.8 mm
04:39 AM 63.7°F17.6°C 92.1°F33.4°C - 19.5 mph NNE31.4 kmh NNE 23.7 mph38.1 kmh 29.74 in1007.1 mb 0.00 in0.0 mm 0.00 in0.0 mm 0.19 in4.8 mm
04:44 AM 63.7°F17.6°C 92.1°F33.4°C - 18.6 mph N29.9 kmh N 22.9 mph36.9 kmh 29.75 in1007.5 mb 0.00 in0.0 mm 0.00 in0.0 mm 0.19 in4.8 mm
04:49 AM 63.8°F17.7°C 92.2°F33.4°C - 19.4 mph N31.2 kmh N 22.3 mph35.9 kmh 29.75 in1007.5 mb 0.00 in0.0 mm 0.00 in0.0 mm 0.19 in4.8 mm
04:54 AM 63.9°F17.7°C 92.3°F33.5°C - 20.1 mph N32.3 kmh N 22.6 mph36.4 kmh 29.75 in1007.5 mb 0.00 in0.0 mm 0.00 in0.0 mm 0.19 in4.8 mm
04:59 AM 64.0°F17.8°C 92.4°F33.6°C - 19.2 mph N30.9 kmh N 22.4 mph36.0 kmh 29.75 in1007.5 mb 0.00 in0.0 mm 0.00 in0.0 mm 0.19 in4.8 mm
05:04 AM 64.0°F17.8°C 92.4°F33.6°C - 19.6 mph NNW31.5 kmh NNW 22.0 mph35.4 kmh 29.75 in1007.5 mb 0.00 in0.0 mm 0.00 in0.0 mm 0.19 in4.8 mm
05:09 AM 63.8°F17.7°C 92.2°F33.4°C - 21.5 mph NNW34.6 kmh NNW 24.5 mph39.4 kmh 29.75 in1007.5 mb 0.00 in0.0 mm 0.00 in0.0 mm 0.19 in4.8 mm
05:14 AM 63.4°F17.4°C 91.8°F33.2°C - 18.2 mph NNW29.3 kmh NNW 23.1 mph37.2 kmh 29.75 in1007.5 mb 0.00 in0.0 mm 0.00 in0.0 mm 0.19 in4.8 mm
05:19 AM 63.2°F17.3°C 91.5°F33.1°C - 22.1 mph NNW35.6 kmh NNW 27.8 mph44.7 kmh 29.75 in1007.5 mb 0.00 in0.0 mm 0.00 in0.0 mm 0.19 in4.8 mm
05:24 AM 63.2°F17.3°C 91.5°F33.1°C - 19.6 mph NNW31.5 kmh NNW 22.1 mph35.6 kmh 29.76 in1007.8 mb 0.00 in0.0 mm 0.00 in0.0 mm 0.19 in4.8 mm
05:29 AM 63.1°F17.3°C 91.4°F33.0°C - 19.0 mph NNW30.6 kmh NNW 21.9 mph35.2 kmh 29.76 in1007.8 mb 0.00 in0.0 mm 0.00 in0.0 mm 0.19 in4.8 mm
05:34 AM 62.8°F17.1°C 91.1°F32.8°C - 18.2 mph NNW29.3 kmh NNW 22.2 mph35.7 kmh 29.76 in1007.8 mb 0.00 in0.0 mm 0.00 in0.0 mm 0.19 in4.8 mm
05:39 AM 62.8°F17.1°C 91.1°F32.8°C - 18.4 mph NNW29.6 kmh NNW 21.0 mph33.8 kmh 29.76 in1007.8 mb 0.00 in0.0 mm 0.00 in0.0 mm 0.19 in4.8 mm
05:44 AM 62.7°F17.1°C 91.0°F32.8°C - 16.8 mph NNW27.0 kmh NNW 19.0 mph30.6 kmh 29.76 in1007.8 mb 0.00 in0.0 mm 0.00 in0.0 mm 0.19 in4.8 mm
05:49 AM 62.7°F17.1°C 91.0°F32.8°C - 17.3 mph NNW27.8 kmh NNW 19.4 mph31.2 kmh 29.76 in1007.8 mb 0.00 in0.0 mm 0.00 in0.0 mm 0.19 in4.8 mm
05:54 AM 62.7°F17.1°C 91.0°F32.8°C - 15.3 mph NNW24.6 kmh NNW 18.1 mph29.1 kmh 29.77 in1008.1 mb 0.00 in0.0 mm 0.00 in0.0 mm 0.19 in4.8 mm
05:59 AM 62.7°F17.1°C 91.0°F32.8°C - 15.3 mph NNW24.6 kmh NNW 17.5 mph28.2 kmh 29.77 in1008.1 mb 0.00 in0.0 mm 0.00 in0.0 mm 0.19 in4.8 mm
06:04 AM 62.7°F17.1°C 91.0°F32.8°C - 15.0 mph NNW24.1 kmh NNW 17.0 mph27.4 kmh 29.77 in1008.1 mb 0.00 in0.0 mm 0.00 in0.0 mm 0.19 in4.8 mm
06:09 AM 62.7°F17.1°C 90.9°F32.7°C - 12.2 mph NNW19.6 kmh NNW 17.8 mph28.6 kmh 29.77 in1008.1 mb 0.00 in0.0 mm 0.00 in0.0 mm 0.19 in4.8 mm
06:14 AM 62.7°F17.1°C 90.9°F32.7°C - 0.3 mph NNW0.5 kmh NNW 2.9 mph4.7 kmh 29.77 in1008.1 mb 0.00 in0.0 mm 0.00 in0.0 mm 0.19 in4.8 mm
06:19 AM 62.8°F17.1°C 91.0°F32.8°C - Calm Calm -- 29.77 in1008.1 mb 0.00 in0.0 mm 0.00 in0.0 mm 0.19 in4.8 mm
06:24 AM 63.0°F17.2°C 91.3°F32.9°C - Calm Calm 0.3 mph0.5 kmh 29.77 in1008.1 mb 0.00 in0.0 mm 0.00 in0.0 mm 0.19 in4.8 mm
06:29 AM 63.0°F17.2°C 91.3°F32.9°C - Calm Calm -- 29.77 in1008.1 mb 0.00 in0.0 mm 0.00 in0.0 mm 0.19 in4.8 mm
06:34 AM 63.0°F17.2°C 91.3°F32.9°C - Calm Calm 0.3 mph0.5 kmh 29.77 in1008.1 mb 0.00 in0.0 mm 0.00 in0.0 mm 0.19 in4.8 mm
06:39 AM 63.2°F17.3°C 91.4°F33.0°C - 1.1 mph N1.8 kmh N 4.6 mph7.4 kmh 29.78 in1008.5 mb 0.00 in0.0 mm 0.00 in0.0 mm 0.19 in4.8 mm
06:44 AM 63.5°F17.5°C 91.9°F33.3°C - Calm Calm -- 29.77 in1008.1 mb 0.00 in0.0 mm 0.00 in0.0 mm 0.19 in4.8 mm
06:49 AM 63.6°F17.6°C 92.0°F33.3°C - Calm Calm -- 29.78 in1008.5 mb 0.00 in0.0 mm 0.00 in0.0 mm 0.19 in4.8 mm
06:54 AM 63.7°F17.6°C 92.1°F33.4°C - Calm Calm -- 29.77 in1008.1 mb 0.00 in0.0 mm 0.00 in0.0 mm 0.19 in4.8 mm
06:59 AM 63.9°F17.7°C 92.3°F33.5°C - Calm Calm -- 29.78 in1008.5 mb 0.00 in0.0 mm 0.00 in0.0 mm 0.19 in4.8 mm
07:04 AM 63.9°F17.7°C 92.3°F33.5°C - 0.7 mph N1.1 kmh N 5.2 mph8.4 kmh 29.78 in1008.5 mb 0.00 in0.0 mm 0.00 in0.0 mm 0.19 in4.8 mm
07:09 AM 64.0°F17.8°C 92.3°F33.5°C - Calm Calm 1.5 mph2.4 kmh 29.78 in1008.5 mb 0.00 in0.0 mm 0.00 in0.0 mm 0.19 in4.8 mm
07:14 AM 64.0°F17.8°C 92.3°F33.5°C - 0.4 mph N0.6 kmh N 4.4 mph7.1 kmh 29.78 in1008.5 mb 0.00 in0.0 mm 0.00 in0.0 mm 0.19 in4.8 mm
07:19 AM 64.0°F17.8°C 92.4°F33.6°C - 0.3 mph N0.5 kmh N 3.2 mph5.1 kmh 29.79 in1008.8 mb 0.00 in0.0 mm 0.00 in0.0 mm 0.19 in4.8 mm
07:24 AM 64.2°F17.9°C 92.7°F33.7°C - 1.8 mph N2.9 kmh N 17.1 mph27.5 kmh 29.79 in1008.8 mb 0.00 in0.0 mm 0.00 in0.0 mm 0.19 in4.8 mm
07:29 AM 64.2°F17.9°C 92.7°F33.7°C - 5.9 mph N9.5 kmh N 29.4 mph47.3 kmh 29.79 in1008.8 mb 0.00 in0.0 mm 0.00 in0.0 mm 0.19 in4.8 mm
07:34 AM 64.1°F17.8°C 92.6°F33.7°C - 9.0 mph N14.5 kmh N 48.9 mph78.7 kmh 29.79 in1008.8 mb 0.00 in0.0 mm 0.00 in0.0 mm 0.19 in4.8 mm
07:39 AM 64.2°F17.9°C 92.5°F33.6°C - 0.5 mph N0.8 kmh N 4.6 mph7.4 kmh 29.79 in1008.8 mb 0.00 in0.0 mm 0.00 in0.0 mm 0.19 in4.8 mm
07:44 AM 64.0°F17.8°C 92.3°F33.5°C - 3.3 mph N5.3 kmh N 21.9 mph35.2 kmh 29.79 in1008.8 mb 0.00 in0.0 mm 0.00 in0.0 mm 0.19 in4.8 mm
07:49 AM 64.2°F17.9°C 92.5°F33.6°C - 0.3 mph NNE0.5 kmh NNE 2.0 mph3.2 kmh 29.80 in1009.1 mb 0.00 in0.0 mm 0.00 in0.0 mm 0.19 in4.8 mm
07:54 AM 64.2°F17.9°C 92.5°F33.6°C - 2.2 mph NNE3.5 kmh NNE 8.1 mph13.0 kmh 29.80 in1009.1 mb 0.00 in0.0 mm 0.00 in0.0 mm 0.19 in4.8 mm
07:59 AM 64.2°F17.9°C 92.7°F33.7°C - Calm Calm 0.3 mph0.5 kmh 29.80 in1009.1 mb 0.00 in0.0 mm 0.00 in0.0 mm 0.19 in4.8 mm
08:04 AM 64.2°F17.9°C 92.7°F33.7°C - Calm Calm 0.3 mph0.5 kmh 29.80 in1009.1 mb 0.00 in0.0 mm 0.00 in0.0 mm 0.19 in4.8 mm
08:09 AM 64.2°F17.9°C 92.7°F33.7°C - Calm Calm 0.5 mph0.8 kmh 29.80 in1009.1 mb 0.00 in0.0 mm 0.00 in0.0 mm 0.19 in4.8 mm
08:14 AM 64.2°F17.9°C 92.7°F33.7°C - Calm Calm 0.4 mph0.6 kmh 29.81 in1009.5 mb 0.00 in0.0 mm 0.00 in0.0 mm 0.19 in4.8 mm
08:19 AM 64.2°F17.9°C 92.7°F33.7°C - Calm Calm -- 29.81 in1009.5 mb 0.00 in0.0 mm 0.00 in0.0 mm 0.19 in4.8 mm
08:24 AM 64.4°F18.0°C 92.9°F33.8°C - Calm Calm -- 29.81 in1009.5 mb 0.00 in0.0 mm 0.00 in0.0 mm 0.19 in4.8 mm
08:29 AM 64.4°F18.0°C 92.9°F33.8°C - Calm Calm -- 29.81 in1009.5 mb 0.00 in0.0 mm 0.00 in0.0 mm 0.19 in4.8 mm
08:34 AM 64.2°F17.9°C 92.7°F33.7°C - 1.6 mph NNE2.6 kmh NNE 9.4 mph15.1 kmh 29.82 in1009.8 mb 0.00 in0.0 mm 0.00 in0.0 mm 0.19 in4.8 mm
08:39 AM 64.4°F18.0°C 92.9°F33.8°C - 4.2 mph NNE6.8 kmh NNE 11.0 mph17.7 kmh 29.82 in1009.8 mb 0.00 in0.0 mm 0.00 in0.0 mm 0.19 in4.8 mm
08:44 AM 64.4°F18.0°C 92.8°F33.8°C - 18.6 mph NNE29.9 kmh NNE 23.8 mph38.3 kmh 29.82 in1009.8 mb 0.00 in0.0 mm 0.00 in0.0 mm 0.19 in4.8 mm
08:49 AM 64.2°F17.9°C 92.5°F33.6°C - 19.6 mph NNE31.5 kmh NNE 24.6 mph39.6 kmh 29.82 in1009.8 mb 0.00 in0.0 mm 0.00 in0.0 mm 0.19 in4.8 mm
08:54 AM 64.2°F17.9°C 92.5°F33.6°C - 19.6 mph NNE31.5 kmh NNE 27.6 mph44.4 kmh 29.82 in1009.8 mb 0.00 in0.0 mm 0.00 in0.0 mm 0.19 in4.8 mm
08:59 AM 64.2°F17.9°C 92.7°F33.7°C - 21.6 mph NE34.8 kmh NE 27.9 mph44.9 kmh 29.82 in1009.8 mb 0.00 in0.0 mm 0.00 in0.0 mm 0.19 in4.8 mm
09:04 AM 64.2°F17.9°C 92.5°F33.6°C - 20.6 mph NNE33.2 kmh NNE 31.1 mph50.1 kmh 29.83 in1010.2 mb 0.00 in0.0 mm 0.00 in0.0 mm 0.19 in4.8 mm
09:09 AM 64.0°F17.8°C 92.3°F33.5°C - 20.8 mph NNE33.5 kmh NNE 25.8 mph41.5 kmh 29.83 in1010.2 mb 0.00 in0.0 mm 0.00 in0.0 mm 0.19 in4.8 mm
09:14 AM 64.0°F17.8°C 92.3°F33.5°C - 21.2 mph NNE34.1 kmh NNE 25.4 mph40.9 kmh 29.83 in1010.2 mb 0.00 in0.0 mm 0.00 in0.0 mm 0.19 in4.8 mm
09:19 AM 64.2°F17.9°C 92.7°F33.7°C - 21.1 mph NNE34.0 kmh NNE 24.8 mph39.9 kmh 29.83 in1010.2 mb 0.00 in0.0 mm 0.00 in0.0 mm 0.19 in4.8 mm
09:24 AM 64.2°F17.9°C 92.5°F33.6°C - 21.5 mph N34.6 kmh N 24.8 mph39.9 kmh 29.84 in1010.5 mb 0.00 in0.0 mm 0.00 in0.0 mm 0.19 in4.8 mm
09:29 AM 64.0°F17.8°C 92.4°F33.6°C - 22.1 mph NNE35.6 kmh NNE 41.5 mph66.8 kmh 29.84 in1010.5 mb 0.00 in0.0 mm 0.00 in0.0 mm 0.19 in4.8 mm
09:34 AM 64.0°F17.8°C 92.4°F33.6°C - 8.5 mph NNE13.7 kmh NNE 22.1 mph35.6 kmh 29.84 in1010.5 mb 0.00 in0.0 mm 0.00 in0.0 mm 0.19 in4.8 mm
09:39 AM 64.0°F17.8°C 92.4°F33.6°C - 6.2 mph N10.0 kmh N 25.6 mph41.2 kmh 29.84 in1010.5 mb 0.00 in0.0 mm 0.00 in0.0 mm 0.19 in4.8 mm
09:44 AM 64.0°F17.8°C 92.3°F33.5°C - 15.0 mph N24.1 kmh N 45.4 mph73.1 kmh 29.85 in1010.8 mb 0.00 in0.0 mm 0.00 in0.0 mm 0.19 in4.8 mm
09:49 AM 64.0°F17.8°C 92.4°F33.6°C - 29.0 mph NNE46.7 kmh NNE 51.7 mph83.2 kmh 29.85 in1010.8 mb 0.00 in0.0 mm 0.00 in0.0 mm 0.19 in4.8 mm
09:54 AM 64.0°F17.8°C 92.4°F33.6°C - 19.0 mph NNE30.6 kmh NNE 43.1 mph69.4 kmh 29.85 in1010.8 mb 0.00 in0.0 mm 0.00 in0.0 mm 0.19 in4.8 mm
09:59 AM 63.8°F17.7°C 92.2°F33.4°C - 24.9 mph NNE40.1 kmh NNE 77.1 mph124.1 kmh 29.86 in1011.2 mb 0.00 in0.0 mm 0.00 in0.0 mm 0.19 in4.8 mm
10:04 AM 63.7°F17.6°C 92.1°F33.4°C - 10.8 mph NNE17.4 kmh NNE 36.2 mph58.3 kmh 29.86 in1011.2 mb 0.00 in0.0 mm 0.00 in0.0 mm 0.19 in4.8 mm
10:09 AM 63.8°F17.7°C 92.1°F33.4°C - 5.1 mph NNE8.2 kmh NNE 26.3 mph42.3 kmh 29.86 in1011.2 mb 0.00 in0.0 mm 0.00 in0.0 mm 0.19 in4.8 mm
10:14 AM 64.0°F17.8°C 92.4°F33.6°C - 5.2 mph NNE8.4 kmh NNE 18.7 mph30.1 kmh 29.86 in1011.2 mb 0.00 in0.0 mm 0.00 in0.0 mm 0.19 in4.8 mm
10:19 AM 64.0°F17.8°C 92.3°F33.5°C - 11.1 mph NNE17.9 kmh NNE 35.7 mph57.5 kmh 29.86 in1011.2 mb 0.00 in0.0 mm 0.00 in0.0 mm 0.19 in4.8 mm
10:24 AM 64.0°F17.8°C 92.4°F33.6°C - 6.6 mph NNE10.6 kmh NNE 21.4 mph34.4 kmh 29.87 in1011.5 mb 0.00 in0.0 mm 0.00 in0.0 mm 0.19 in4.8 mm
10:29 AM 64.0°F17.8°C 92.4°F33.6°C - 3.9 mph NNE6.3 kmh NNE 17.3 mph27.8 kmh 29.86 in1011.2 mb 0.00 in0.0 mm 0.00 in0.0 mm 0.19 in4.8 mm
10:34 AM 64.0°F17.8°C 92.3°F33.5°C - 0.2 mph NE0.3 kmh NE 2.6 mph4.2 kmh 29.87 in1011.5 mb 0.00 in0.0 mm 0.00 in0.0 mm 0.19 in4.8 mm
10:39 AM 64.2°F17.9°C 92.5°F33.6°C - 4.0 mph NE6.4 kmh NE 20.3 mph32.7 kmh 29.87 in1011.5 mb 0.00 in0.0 mm 0.00 in0.0 mm 0.19 in4.8 mm
10:44 AM 64.2°F17.9°C 92.5°F33.6°C - 7.5 mph NNE12.1 kmh NNE 22.7 mph36.5 kmh 29.87 in1011.5 mb 0.00 in0.0 mm 0.00 in0.0 mm 0.19 in4.8 mm
10:49 AM 64.2°F17.9°C 92.5°F33.6°C - 5.4 mph NE8.7 kmh NE 26.7 mph43.0 kmh 29.87 in1011.5 mb 0.00 in0.0 mm 0.00 in0.0 mm 0.19 in4.8 mm
10:54 AM 64.1°F17.8°C 92.4°F33.6°C - 2.2 mph NE3.5 kmh NE 14.0 mph22.5 kmh 29.87 in1011.5 mb 0.00 in0.0 mm 0.00 in0.0 mm 0.19 in4.8 mm
10:59 AM 64.0°F17.8°C 92.4°F33.6°C - 1.7 mph NE2.7 kmh NE 12.1 mph19.5 kmh 29.88 in1011.9 mb 0.00 in0.0 mm 0.00 in0.0 mm 0.19 in4.8 mm
11:04 AM 64.0°F17.8°C 92.4°F33.6°C - 0.2 mph NE0.3 kmh NE 3.6 mph5.8 kmh 29.88 in1011.9 mb 0.00 in0.0 mm 0.00 in0.0 mm 0.19 in4.8 mm
11:09 AM 64.0°F17.8°C 92.4°F33.6°C - 0.2 mph NE0.3 kmh NE 3.3 mph5.3 kmh 29.89 in1012.2 mb 0.00 in0.0 mm 0.00 in0.0 mm 0.19 in4.8 mm
11:14 AM 63.9°F17.7°C 92.3°F33.5°C - 0.9 mph NE1.4 kmh NE 8.6 mph13.8 kmh 29.89 in1012.2 mb 0.00 in0.0 mm 0.00 in0.0 mm 0.19 in4.8 mm
11:19 AM 64.0°F17.8°C 92.3°F33.5°C - 11.3 mph NE18.2 kmh NE 24.0 mph38.6 kmh 29.89 in1012.2 mb 0.00 in0.0 mm 0.00 in0.0 mm 0.19 in4.8 mm
11:24 AM 64.2°F17.9°C 92.5°F33.6°C - 1.0 mph NE1.6 kmh NE 10.8 mph17.4 kmh 29.90 in1012.5 mb 0.00 in0.0 mm 0.00 in0.0 mm 0.19 in4.8 mm
11:29 AM 64.2°F17.9°C 92.5°F33.6°C - 6.6 mph NE10.6 kmh NE 16.3 mph26.2 kmh 29.89 in1012.2 mb 0.00 in0.0 mm 0.00 in0.0 mm 0.19 in4.8 mm
11:34 AM 64.2°F17.9°C 92.5°F33.6°C - 0.7 mph NE1.1 kmh NE 10.0 mph16.1 kmh 29.90 in1012.5 mb 0.00 in0.0 mm 0.00 in0.0 mm 0.19 in4.8 mm
11:39 AM 64.4°F18.0°C 92.9°F33.8°C - 0.1 mph NE0.2 kmh NE 3.0 mph4.8 kmh 29.91 in1012.9 mb 0.00 in0.0 mm 0.00 in0.0 mm 0.19 in4.8 mm
11:44 AM 64.2°F17.9°C 92.7°F33.7°C - Calm Calm 0.8 mph1.3 kmh 29.90 in1012.5 mb 0.00 in0.0 mm 0.00 in0.0 mm 0.19 in4.8 mm
11:49 AM 64.2°F17.9°C 92.7°F33.7°C - 0.1 mph NE0.2 kmh NE 0.6 mph1.0 kmh 29.91 in1012.9 mb 0.00 in0.0 mm 0.00 in0.0 mm 0.19 in4.8 mm
11:54 AM 64.2°F17.9°C 92.7°F33.7°C - 0.1 mph NNE0.2 kmh NNE 1.7 mph2.7 kmh 29.92 in1013.2 mb 0.00 in0.0 mm 0.00 in0.0 mm 0.19 in4.8 mm
11:59 AM 64.2°F17.9°C 92.7°F33.7°C - Calm Calm 0.5 mph0.8 kmh 29.91 in1012.9 mb 0.00 in0.0 mm 0.00 in0.0 mm 0.19 in4.8 mm
12:04 PM 64.4°F18.0°C 92.9°F33.8°C - Calm Calm -- 29.92 in1013.2 mb 0.00 in0.0 mm 0.00 in0.0 mm 0.19 in4.8 mm
12:09 PM 64.4°F18.0°C 92.9°F33.8°C - Calm Calm -- 29.92 in1013.2 mb 0.00 in0.0 mm 0.00 in0.0 mm 0.19 in4.8 mm
12:14 PM 64.5°F18.1°C 93.0°F33.9°C - Calm Calm 0.5 mph0.8 kmh 29.92 in1013.2 mb 0.00 in0.0 mm 0.00 in0.0 mm 0.19 in4.8 mm
12:19 PM 64.5°F18.1°C 93.0°F33.9°C - 0.1 mph N0.2 kmh N 1.4 mph2.3 kmh 29.92 in1013.2 mb 0.00 in0.0 mm 0.00 in0.0 mm 0.19 in4.8 mm
12:24 PM 64.5°F18.1°C 92.9°F33.8°C - 13.8 mph N22.2 kmh N 23.8 mph38.3 kmh 29.92 in1013.2 mb 0.00 in0.0 mm 0.00 in0.0 mm 0.19 in4.8 mm
12:29 PM 64.5°F18.1°C 93.0°F33.9°C - 0.8 mph NNE1.3 kmh NNE 7.7 mph12.4 kmh 29.93 in1013.5 mb 0.00 in0.0 mm 0.00 in0.0 mm 0.19 in4.8 mm
12:34 PM 64.5°F18.1°C 93.0°F33.9°C - 5.5 mph N8.9 kmh N 11.5 mph18.5 kmh 29.93 in1013.5 mb 0.00 in0.0 mm 0.00 in0.0 mm 0.19 in4.8 mm
12:39 PM 64.5°F18.1°C 93.0°F33.9°C - 1.2 mph NNE1.9 kmh NNE 9.3 mph15.0 kmh 29.93 in1013.5 mb 0.00 in0.0 mm 0.00 in0.0 mm 0.19 in4.8 mm
12:44 PM 64.5°F18.1°C 93.0°F33.9°C - 10.3 mph NNE16.6 kmh NNE 19.4 mph31.2 kmh 29.93 in1013.5 mb 0.00 in0.0 mm 0.00 in0.0 mm 0.19 in4.8 mm
12:49 PM 64.7°F18.2°C 93.2°F34.0°C - 9.8 mph NNE15.8 kmh NNE 20.0 mph32.2 kmh 29.94 in1013.9 mb 0.00 in0.0 mm 0.00 in0.0 mm 0.19 in4.8 mm
12:54 PM 64.8°F18.2°C 93.2°F34.0°C - 5.2 mph NNE8.4 kmh NNE 9.6 mph15.4 kmh 29.94 in1013.9 mb 0.00 in0.0 mm 0.00 in0.0 mm 0.19 in4.8 mm
12:59 PM 65.0°F18.3°C 93.6°F34.2°C - 18.6 mph NNE29.9 kmh NNE 24.0 mph38.6 kmh 29.94 in1013.9 mb 0.00 in0.0 mm 0.00 in0.0 mm 0.19 in4.8 mm
01:04 PM 65.0°F18.3°C 93.6°F34.2°C - 19.4 mph NNE31.2 kmh NNE 23.4 mph37.7 kmh 29.94 in1013.9 mb 0.00 in0.0 mm 0.00 in0.0 mm 0.19 in4.8 mm
01:09 PM 65.2°F18.4°C 93.8°F34.3°C - 16.9 mph NNE27.2 kmh NNE 22.9 mph36.9 kmh 29.94 in1013.9 mb 0.00 in0.0 mm 0.00 in0.0 mm 0.19 in4.8 mm
01:14 PM 65.2°F18.4°C 93.8°F34.3°C - 17.4 mph N28.0 kmh N 20.1 mph32.3 kmh 29.95 in1014.2 mb 0.00 in0.0 mm 0.00 in0.0 mm 0.19 in4.8 mm
01:19 PM 65.2°F18.4°C 93.8°F34.3°C - 17.9 mph N28.8 kmh N 20.8 mph33.5 kmh 29.95 in1014.2 mb 0.00 in0.0 mm 0.00 in0.0 mm 0.19 in4.8 mm
01:24 PM 65.1°F18.4°C 93.7°F34.3°C - 18.9 mph N30.4 kmh N 21.2 mph34.1 kmh 29.95 in1014.2 mb 0.00 in0.0 mm 0.00 in0.0 mm 0.19 in4.8 mm
01:29 PM 65.0°F18.3°C 93.6°F34.2°C - 19.5 mph N31.4 kmh N 21.6 mph34.8 kmh 29.95 in1014.2 mb 0.00 in0.0 mm 0.00 in0.0 mm 0.19 in4.8 mm
01:34 PM 64.7°F18.2°C 93.2°F34.0°C - 19.7 mph N31.7 kmh N 21.9 mph35.2 kmh 29.96 in1014.6 mb 0.00 in0.0 mm 0.00 in0.0 mm 0.19 in4.8 mm
01:39 PM 64.5°F18.1°C 92.9°F33.8°C - 19.6 mph N31.5 kmh N 22.1 mph35.6 kmh 29.96 in1014.6 mb 0.00 in0.0 mm 0.00 in0.0 mm 0.19 in4.8 mm
01:44 PM 64.5°F18.1°C 93.0°F33.9°C - 20.5 mph N33.0 kmh N 23.2 mph37.3 kmh 29.96 in1014.6 mb 0.00 in0.0 mm 0.00 in0.0 mm 0.19 in4.8 mm
01:49 PM 64.5°F18.1°C 93.0°F33.9°C - 17.6 mph N28.3 kmh N 20.6 mph33.2 kmh 29.96 in1014.6 mb 0.00 in0.0 mm 0.00 in0.0 mm 0.19 in4.8 mm
01:54 PM 64.8°F18.2°C 93.3°F34.1°C - 18.2 mph N29.3 kmh N 20.4 mph32.8 kmh 29.96 in1014.6 mb 0.00 in0.0 mm 0.00 in0.0 mm 0.19 in4.8 mm
01:59 PM 65.0°F18.3°C 93.6°F34.2°C - 19.1 mph N30.7 kmh N 21.3 mph34.3 kmh 29.96 in1014.6 mb 0.00 in0.0 mm 0.00 in0.0 mm 0.19 in4.8 mm
02:04 PM 65.2°F18.4°C 93.8°F34.3°C - 20.1 mph N32.3 kmh N 22.4 mph36.0 kmh 29.96 in1014.6 mb 0.00 in0.0 mm 0.00 in0.0 mm 0.19 in4.8 mm
02:09 PM 65.4°F18.6°C 93.9°F34.4°C - 19.3 mph N31.1 kmh N 21.5 mph34.6 kmh 29.97 in1014.9 mb 0.00 in0.0 mm 0.00 in0.0 mm 0.19 in4.8 mm
02:14 PM 65.3°F18.5°C 93.9°F34.4°C - 19.7 mph N31.7 kmh N 22.1 mph35.6 kmh 29.97 in1014.9 mb 0.00 in0.0 mm 0.00 in0.0 mm 0.19 in4.8 mm
02:19 PM 65.3°F18.5°C 93.9°F34.4°C - 18.6 mph N29.9 kmh N 21.7 mph34.9 kmh 29.97 in1014.9 mb 0.00 in0.0 mm 0.00 in0.0 mm 0.19 in4.8 mm
02:24 PM 65.4°F18.6°C 94.0°F34.4°C - 18.9 mph N30.4 kmh N 22.0 mph35.4 kmh 29.97 in1014.9 mb 0.00 in0.0 mm 0.00 in0.0 mm 0.19 in4.8 mm
02:29 PM 65.4°F18.6°C 93.9°F34.4°C - 18.2 mph N29.3 kmh N 21.0 mph33.8 kmh 29.97 in1014.9 mb 0.00 in0.0 mm 0.00 in0.0 mm 0.19 in4.8 mm
02:34 PM 65.5°F18.6°C 94.0°F34.4°C - 29.8 mph N48.0 kmh N 39.1 mph62.9 kmh 29.97 in1014.9 mb 0.00 in0.0 mm 0.00 in0.0 mm 0.19 in4.8 mm
02:39 PM 65.4°F18.6°C 93.9°F34.4°C - 30.0 mph N48.3 kmh N 35.7 mph57.5 kmh 29.98 in1015.2 mb 0.00 in0.0 mm 0.00 in0.0 mm 0.19 in4.8 mm
02:44 PM 65.2°F18.4°C 93.7°F34.3°C - 25.5 mph N41.0 kmh N 34.4 mph55.4 kmh 29.98 in1015.2 mb 0.00 in0.0 mm 0.00 in0.0 mm 0.19 in4.8 mm
02:49 PM 65.2°F18.4°C 93.7°F34.3°C - 27.0 mph N43.5 kmh N 36.1 mph58.1 kmh 29.98 in1015.2 mb 0.00 in0.0 mm 0.00 in0.0 mm 0.19 in4.8 mm
02:54 PM 65.2°F18.4°C 93.7°F34.3°C - 16.4 mph N26.4 kmh N 33.7 mph54.2 kmh 29.98 in1015.2 mb 0.00 in0.0 mm 0.00 in0.0 mm 0.19 in4.8 mm
02:59 PM 65.2°F18.4°C 93.8°F34.3°C - 0.1 mph N0.2 kmh N 1.6 mph2.6 kmh 29.98 in1015.2 mb 0.00 in0.0 mm 0.00 in0.0 mm 0.19 in4.8 mm
03:04 PM 65.2°F18.4°C 93.8°F34.3°C - 2.4 mph N3.9 kmh N 11.0 mph17.7 kmh 29.98 in1015.2 mb 0.00 in0.0 mm 0.00 in0.0 mm 0.19 in4.8 mm
03:09 PM 65.0°F18.3°C 93.4°F34.1°C - 22.2 mph N35.7 kmh N 32.3 mph52.0 kmh 29.98 in1015.2 mb 0.00 in0.0 mm 0.00 in0.0 mm 0.19 in4.8 mm
03:14 PM 65.2°F18.4°C 93.7°F34.3°C - 15.0 mph N24.1 kmh N 20.5 mph33.0 kmh 29.99 in1015.6 mb 0.00 in0.0 mm 0.00 in0.0 mm 0.19 in4.8 mm
03:19 PM 65.2°F18.4°C 93.8°F34.3°C - 17.9 mph N28.8 kmh N 20.0 mph32.2 kmh 29.99 in1015.6 mb 0.00 in0.0 mm 0.00 in0.0 mm 0.19 in4.8 mm
03:24 PM 65.3°F18.5°C 93.9°F34.4°C - 17.7 mph N28.5 kmh N 19.6 mph31.5 kmh 29.99 in1015.6 mb 0.00 in0.0 mm 0.00 in0.0 mm 0.19 in4.8 mm
03:29 PM 65.5°F18.6°C 94.1°F34.5°C - 16.9 mph N27.2 kmh N 19.6 mph31.5 kmh 29.99 in1015.6 mb 0.00 in0.0 mm 0.00 in0.0 mm 0.19 in4.8 mm
03:34 PM 65.7°F18.7°C 94.4°F34.7°C - 16.2 mph N26.1 kmh N 18.8 mph30.3 kmh 30.00 in1015.9 mb 0.00 in0.0 mm 0.00 in0.0 mm 0.19 in4.8 mm
03:39 PM 66.0°F18.9°C 94.7°F34.8°C - 15.6 mph NNW25.1 kmh NNW 18.3 mph29.5 kmh 30.00 in1015.9 mb 0.00 in0.0 mm 0.00 in0.0 mm 0.19 in4.8 mm
03:44 PM 65.7°F18.7°C 94.4°F34.7°C - 17.2 mph NNW27.7 kmh NNW 19.5 mph31.4 kmh 30.00 in1015.9 mb 0.00 in0.0 mm 0.00 in0.0 mm 0.19 in4.8 mm
03:49 PM 65.5°F18.6°C 94.1°F34.5°C - 18.3 mph NNW29.5 kmh NNW 21.2 mph34.1 kmh 30.00 in1015.9 mb 0.00 in0.0 mm 0.00 in0.0 mm 0.19 in4.8 mm
03:54 PM 65.3°F18.5°C 93.8°F34.3°C - 18.5 mph NNW29.8 kmh NNW 21.8 mph35.1 kmh 30.00 in1015.9 mb 0.00 in0.0 mm 0.00 in0.0 mm 0.19 in4.8 mm
03:59 PM 64.9°F18.3°C 93.5°F34.2°C - 32.4 mph NNW52.1 kmh NNW 43.6 mph70.2 kmh 30.00 in1015.9 mb 0.00 in0.0 mm 0.00 in0.0 mm 0.19 in4.8 mm
04:04 PM 64.4°F18.0°C 92.8°F33.8°C - 26.8 mph NNW43.1 kmh NNW 35.0 mph56.3 kmh 30.01 in1016.3 mb 0.00 in0.0 mm 0.00 in0.0 mm 0.19 in4.8 mm
04:09 PM 64.2°F17.9°C 92.7°F33.7°C - 19.4 mph NNW31.2 kmh NNW 22.7 mph36.5 kmh 30.01 in1016.3 mb 0.00 in0.0 mm 0.00 in0.0 mm 0.19 in4.8 mm
04:14 PM 64.2°F17.9°C 92.7°F33.7°C - 19.5 mph NNW31.4 kmh NNW 30.4 mph48.9 kmh 30.01 in1016.3 mb 0.00 in0.0 mm 0.00 in0.0 mm 0.19 in4.8 mm
04:19 PM 64.2°F17.9°C 92.7°F33.7°C - 1.8 mph NNW2.9 kmh NNW 10.3 mph16.6 kmh 30.01 in1016.3 mb 0.00 in0.0 mm 0.00 in0.0 mm 0.19 in4.8 mm
04:24 PM 64.0°F17.8°C 92.4°F33.6°C - Calm Calm -- 30.01 in1016.3 mb 0.00 in0.0 mm 0.00 in0.0 mm 0.19 in4.8 mm
04:29 PM 63.8°F17.7°C 92.2°F33.4°C - 0.2 mph NNW0.3 kmh NNW 2.5 mph4.0 kmh 30.01 in1016.3 mb 0.00 in0.0 mm 0.00 in0.0 mm 0.19 in4.8 mm
04:49 PM 63.6°F17.6°C 92.0°F33.3°C - 1.8 mph N2.9 kmh N 7.9 mph12.7 kmh 30.02 in1016.6 mb 0.00 in0.0 mm 0.00 in0.0 mm 0.19 in4.8 mm
04:54 PM 63.7°F17.6°C 92.0°F33.3°C - 3.0 mph N4.8 kmh N 7.7 mph12.4 kmh 30.02 in1016.6 mb 0.00 in0.0 mm 0.00 in0.0 mm 0.19 in4.8 mm
04:59 PM 63.7°F17.6°C 92.0°F33.3°C - 12.8 mph N20.6 kmh N 25.7 mph41.4 kmh 30.02 in1016.6 mb 0.00 in0.0 mm 0.00 in0.0 mm 0.19 in4.8 mm
05:04 PM 63.7°F17.6°C 92.1°F33.4°C - 24.3 mph N39.1 kmh N 34.7 mph55.8 kmh 30.02 in1016.6 mb 0.00 in0.0 mm 0.00 in0.0 mm 0.19 in4.8 mm
05:09 PM 63.9°F17.7°C 92.3°F33.5°C - 11.2 mph N18.0 kmh N 21.7 mph34.9 kmh 30.02 in1016.6 mb 0.00 in0.0 mm 0.00 in0.0 mm 0.19 in4.8 mm
05:14 PM 64.1°F17.8°C 92.6°F33.7°C - 10.8 mph N17.4 kmh N 20.9 mph33.6 kmh 30.02 in1016.6 mb 0.00 in0.0 mm 0.00 in0.0 mm 0.19 in4.8 mm
05:19 PM 64.4°F18.0°C 92.9°F33.8°C - 14.8 mph N23.8 kmh N 27.9 mph44.9 kmh 30.02 in1016.6 mb 0.00 in0.0 mm 0.00 in0.0 mm 0.19 in4.8 mm
05:24 PM 64.7°F18.2°C 93.1°F33.9°C - 2.4 mph N3.9 kmh N 11.5 mph18.5 kmh 30.02 in1016.6 mb 0.00 in0.0 mm 0.00 in0.0 mm 0.19 in4.8 mm
05:29 PM 64.5°F18.1°C 93.0°F33.9°C - 3.0 mph N4.8 kmh N 12.4 mph20.0 kmh 30.02 in1016.6 mb 0.00 in0.0 mm 0.00 in0.0 mm 0.19 in4.8 mm
05:34 PM 64.4°F18.0°C 92.9°F33.8°C - 2.1 mph N3.4 kmh N 11.3 mph18.2 kmh 30.02 in1016.6 mb 0.00 in0.0 mm 0.00 in0.0 mm 0.19 in4.8 mm
05:39 PM 64.4°F18.0°C 92.8°F33.8°C - 10.1 mph N16.3 kmh N 22.5 mph36.2 kmh 30.02 in1016.6 mb 0.00 in0.0 mm 0.00 in0.0 mm 0.19 in4.8 mm
05:44 PM 64.7°F18.2°C 93.2°F34.0°C - 10.0 mph N16.1 kmh N 23.6 mph38.0 kmh 30.02 in1016.6 mb 0.00 in0.0 mm 0.00 in0.0 mm 0.19 in4.8 mm
05:49 PM 64.7°F18.2°C 93.1°F33.9°C - 0.8 mph NNW1.3 kmh NNW 6.8 mph10.9 kmh 30.02 in1016.6 mb 0.00 in0.0 mm 0.00 in0.0 mm 0.19 in4.8 mm
05:54 PM 64.7°F18.2°C 93.2°F34.0°C - 1.4 mph NNW2.3 kmh NNW 7.6 mph12.2 kmh 30.02 in1016.6 mb 0.00 in0.0 mm 0.00 in0.0 mm 0.19 in4.8 mm
05:59 PM 64.7°F18.2°C 93.2°F34.0°C - 10.9 mph NNW17.5 kmh NNW 25.0 mph40.2 kmh 30.02 in1016.6 mb 0.00 in0.0 mm 0.00 in0.0 mm 0.19 in4.8 mm
06:04 PM 64.5°F18.1°C 92.9°F33.8°C - 9.3 mph NNW15.0 kmh NNW 23.5 mph37.8 kmh 30.02 in1016.6 mb 0.00 in0.0 mm 0.00 in0.0 mm 0.19 in4.8 mm
06:09 PM 64.5°F18.1°C 93.0°F33.9°C - 25.3 mph NNW40.7 kmh NNW 33.7 mph54.2 kmh 30.03 in1016.9 mb 0.00 in0.0 mm 0.00 in0.0 mm 0.19 in4.8 mm
06:14 PM 64.7°F18.2°C 93.1°F33.9°C - 22.2 mph NNW35.7 kmh NNW 30.9 mph49.7 kmh 30.03 in1016.9 mb 0.00 in0.0 mm 0.00 in0.0 mm 0.19 in4.8 mm
06:19 PM 65.0°F18.3°C 93.6°F34.2°C - 24.8 mph NNW39.9 kmh NNW 33.6 mph54.1 kmh 30.03 in1016.9 mb 0.00 in0.0 mm 0.00 in0.0 mm 0.19 in4.8 mm
06:24 PM 65.0°F18.3°C 93.4°F34.1°C - 19.6 mph NNW31.5 kmh NNW 27.9 mph44.9 kmh 30.03 in1016.9 mb 0.00 in0.0 mm 0.00 in0.0 mm 0.19 in4.8 mm
06:29 PM 65.0°F18.3°C 93.6°F34.2°C - 14.0 mph NNW22.5 kmh NNW 15.7 mph25.3 kmh 30.03 in1016.9 mb 0.00 in0.0 mm 0.00 in0.0 mm 0.19 in4.8 mm
06:34 PM 65.0°F18.3°C 93.6°F34.2°C - 15.2 mph NNW24.5 kmh NNW 17.1 mph27.5 kmh 30.03 in1016.9 mb 0.00 in0.0 mm 0.00 in0.0 mm 0.19 in4.8 mm
06:39 PM 64.9°F18.3°C 93.5°F34.2°C - 15.2 mph NNW24.5 kmh NNW 17.5 mph28.2 kmh 30.03 in1016.9 mb 0.00 in0.0 mm 0.00 in0.0 mm 0.19 in4.8 mm
06:44 PM 65.0°F18.3°C 93.4°F34.1°C - 14.5 mph NNW23.3 kmh NNW 16.1 mph25.9 kmh 30.03 in1016.9 mb 0.00 in0.0 mm 0.00 in0.0 mm 0.19 in4.8 mm
06:49 PM 64.9°F18.3°C 93.5°F34.2°C - 16.1 mph NW25.9 kmh NW 17.8 mph28.6 kmh 30.04 in1017.3 mb 0.00 in0.0 mm 0.00 in0.0 mm 0.19 in4.8 mm
06:54 PM 64.5°F18.1°C 92.9°F33.8°C - 16.3 mph NNW26.2 kmh NNW 18.1 mph29.1 kmh 30.04 in1017.3 mb 0.00 in0.0 mm 0.00 in0.0 mm 0.19 in4.8 mm
06:59 PM 64.2°F17.9°C 92.7°F33.7°C - 16.4 mph NW26.4 kmh NW 18.1 mph29.1 kmh 30.04 in1017.3 mb 0.00 in0.0 mm 0.00 in0.0 mm 0.19 in4.8 mm
07:04 PM 63.8°F17.7°C 92.1°F33.4°C - 19.1 mph NW30.7 kmh NW 26.5 mph42.6 kmh 30.04 in1017.3 mb 0.00 in0.0 mm 0.00 in0.0 mm 0.19 in4.8 mm
07:09 PM 63.5°F17.5°C 91.9°F33.3°C - 12.2 mph NW19.6 kmh NW 23.4 mph37.7 kmh 30.04 in1017.3 mb 0.00 in0.0 mm 0.00 in0.0 mm 0.19 in4.8 mm
07:14 PM 63.3°F17.4°C 91.7°F33.2°C - 5.6 mph NW9.0 kmh NW 16.0 mph25.7 kmh 30.04 in1017.3 mb 0.00 in0.0 mm 0.00 in0.0 mm 0.19 in4.8 mm
07:19 PM 63.0°F17.2°C 91.2°F32.9°C - 1.9 mph NW3.1 kmh NW 10.1 mph16.3 kmh 30.04 in1017.3 mb 0.00 in0.0 mm 0.00 in0.0 mm 0.19 in4.8 mm
07:24 PM 62.9°F17.2°C 91.2°F32.9°C - 9.4 mph NW15.1 kmh NW 19.4 mph31.2 kmh 30.05 in1017.6 mb 0.00 in0.0 mm 0.00 in0.0 mm 0.19 in4.8 mm
07:29 PM 63.0°F17.2°C 91.3°F32.9°C - 4.0 mph NW6.4 kmh NW 13.6 mph21.9 kmh 30.05 in1017.6 mb 0.00 in0.0 mm 0.00 in0.0 mm 0.19 in4.8 mm
07:34 PM 63.0°F17.2°C 91.3°F32.9°C - 0.8 mph NW1.3 kmh NW 5.6 mph9.0 kmh 30.05 in1017.6 mb 0.00 in0.0 mm 0.00 in0.0 mm 0.19 in4.8 mm
07:39 PM 62.8°F17.1°C 91.1°F32.8°C - Calm Calm -- 30.05 in1017.6 mb 0.00 in0.0 mm 0.00 in0.0 mm 0.19 in4.8 mm
07:44 PM 62.7°F17.1°C 91.0°F32.8°C - Calm Calm -- 30.05 in1017.6 mb 0.00 in0.0 mm 0.00 in0.0 mm 0.19 in4.8 mm
07:49 PM 62.8°F17.1°C 91.1°F32.8°C - 0.4 mph NW0.6 kmh NW 2.0 mph3.2 kmh 30.05 in1017.6 mb 0.00 in0.0 mm 0.00 in0.0 mm 0.19 in4.8 mm
07:54 PM 62.7°F17.1°C 91.0°F32.8°C - Calm Calm 0.6 mph1.0 kmh 30.06 in1017.9 mb 0.00 in0.0 mm 0.00 in0.0 mm 0.19 in4.8 mm
07:59 PM 62.8°F17.1°C 91.1°F32.8°C - Calm Calm 0.3 mph0.5 kmh 30.06 in1017.9 mb 0.00 in0.0 mm 0.00 in0.0 mm 0.19 in4.8 mm
08:04 PM 63.0°F17.2°C 91.3°F32.9°C - Calm Calm -- 30.06 in1017.9 mb 0.00 in0.0 mm 0.00 in0.0 mm 0.19 in4.8 mm
08:09 PM 62.8°F17.1°C 91.0°F32.8°C - 0.2 mph NW0.3 kmh NW 1.2 mph1.9 kmh 30.06 in1017.9 mb 0.00 in0.0 mm 0.00 in0.0 mm 0.19 in4.8 mm
08:14 PM 62.7°F17.1°C 91.0°F32.8°C - Calm Calm 0.7 mph1.1 kmh 30.06 in1017.9 mb 0.00 in0.0 mm 0.00 in0.0 mm 0.19 in4.8 mm
08:19 PM 62.8°F17.1°C 91.1°F32.8°C - Calm Calm 0.3 mph0.5 kmh 30.06 in1017.9 mb 0.00 in0.0 mm 0.00 in0.0 mm 0.19 in4.8 mm
08:24 PM 62.8°F17.1°C 91.1°F32.8°C - Calm Calm -- 30.06 in1017.9 mb 0.00 in0.0 mm 0.00 in0.0 mm 0.19 in4.8 mm
08:29 PM 62.5°F16.9°C 90.6°F32.6°C - Calm Calm -- 30.07 in1018.3 mb 0.00 in0.0 mm 0.00 in0.0 mm 0.19 in4.8 mm
08:34 PM 62.5°F16.9°C 90.8°F32.7°C - Calm Calm -- 30.07 in1018.3 mb 0.00 in0.0 mm 0.00 in0.0 mm 0.19 in4.8 mm
08:39 PM 62.4°F16.9°C 90.6°F32.6°C - 0.1 mph NW0.2 kmh NW 2.0 mph3.2 kmh 30.07 in1018.3 mb 0.00 in0.0 mm 0.00 in0.0 mm 0.19 in4.8 mm
08:44 PM 62.1°F16.7°C 90.3°F32.4°C - Calm Calm 0.3 mph0.5 kmh 30.07 in1018.3 mb 0.00 in0.0 mm 0.00 in0.0 mm 0.19 in4.8 mm
08:49 PM 61.8°F16.6°C 90.0°F32.2°C - Calm Calm -- 30.07 in1018.3 mb 0.00 in0.0 mm 0.00 in0.0 mm 0.19 in4.8 mm
08:54 PM 61.8°F16.6°C 90.0°F32.2°C - Calm Calm 0.3 mph0.5 kmh 30.07 in1018.3 mb 0.00 in0.0 mm 0.00 in0.0 mm 0.19 in4.8 mm
08:59 PM 62.1°F16.7°C 90.3°F32.4°C - Calm Calm 0.3 mph0.5 kmh 30.08 in1018.6 mb 0.00 in0.0 mm 0.00 in0.0 mm 0.19 in4.8 mm
09:04 PM 61.8°F16.6°C 89.8°F32.1°C - 0.4 mph WNW0.6 kmh WNW 5.0 mph8.0 kmh 30.08 in1018.6 mb 0.00 in0.0 mm 0.00 in0.0 mm 0.19 in4.8 mm
09:09 PM 61.6°F16.4°C 89.7°F32.1°C - 0.1 mph NW0.2 kmh NW 2.3 mph3.7 kmh 30.08 in1018.6 mb 0.00 in0.0 mm 0.00 in0.0 mm 0.19 in4.8 mm
09:14 PM 61.3°F16.3°C 89.4°F31.9°C - Calm Calm 0.7 mph1.1 kmh 30.08 in1018.6 mb 0.00 in0.0 mm 0.00 in0.0 mm 0.19 in4.8 mm
09:19 PM 61.3°F16.3°C 89.4°F31.9°C - Calm Calm 0.3 mph0.5 kmh 30.08 in1018.6 mb 0.00 in0.0 mm 0.00 in0.0 mm 0.19 in4.8 mm
09:24 PM 61.3°F16.3°C 89.3°F31.8°C - 0.9 mph WNW1.4 kmh WNW 7.4 mph11.9 kmh 30.08 in1018.6 mb 0.00 in0.0 mm 0.00 in0.0 mm 0.19 in4.8 mm
09:29 PM 61.3°F16.3°C 89.3°F31.8°C - 0.2 mph NW0.3 kmh NW 3.4 mph5.5 kmh 30.08 in1018.6 mb 0.00 in0.0 mm 0.00 in0.0 mm 0.19 in4.8 mm
09:34 PM 61.2°F16.2°C 89.2°F31.8°C - Calm Calm -- 30.08 in1018.6 mb 0.00 in0.0 mm 0.00 in0.0 mm 0.19 in4.8 mm
09:39 PM 61.3°F16.3°C 89.3°F31.8°C - Calm Calm -- 30.09 in1019.0 mb 0.00 in0.0 mm 0.00 in0.0 mm 0.19 in4.8 mm
09:44 PM 61.3°F16.3°C 89.4°F31.9°C - Calm Calm -- 30.09 in1019.0 mb 0.00 in0.0 mm 0.00 in0.0 mm 0.19 in4.8 mm
09:49 PM 61.2°F16.2°C 89.3°F31.8°C - Calm Calm -- 30.09 in1019.0 mb 0.00 in0.0 mm 0.00 in0.0 mm 0.19 in4.8 mm
09:54 PM 61.3°F16.3°C 89.3°F31.8°C - Calm Calm -- 30.09 in1019.0 mb 0.00 in0.0 mm 0.00 in0.0 mm 0.19 in4.8 mm
09:59 PM 61.2°F16.2°C 89.2°F31.8°C - Calm Calm -- 30.09 in1019.0 mb 0.00 in0.0 mm 0.00 in0.0 mm 0.19 in4.8 mm
10:04 PM 61.2°F16.2°C 89.2°F31.8°C - Calm Calm -- 30.09 in1019.0 mb 0.00 in0.0 mm 0.00 in0.0 mm 0.19 in4.8 mm
10:09 PM 61.1°F16.2°C 89.2°F31.8°C - Calm Calm -- 30.09 in1019.0 mb 0.00 in0.0 mm 0.00 in0.0 mm 0.19 in4.8 mm
10:14 PM 61.0°F16.1°C 88.9°F31.6°C - Calm Calm -- 30.09 in1019.0 mb 0.00 in0.0 mm 0.00 in0.0 mm 0.19 in4.8 mm
10:19 PM 61.0°F16.1°C 88.9°F31.6°C - Calm Calm -- 30.09 in1019.0 mb 0.00 in0.0 mm 0.00 in0.0 mm 0.19 in4.8 mm
10:24 PM 61.0°F16.1°C 88.9°F31.6°C - Calm Calm -- 30.09 in1019.0 mb 0.00 in0.0 mm 0.00 in0.0 mm 0.19 in4.8 mm
10:29 PM 60.8°F16.0°C 88.8°F31.6°C - Calm Calm -- 30.09 in1019.0 mb 0.00 in0.0 mm 0.00 in0.0 mm 0.19 in4.8 mm
10:34 PM 60.8°F16.0°C 88.8°F31.6°C - Calm Calm -- 30.09 in1019.0 mb 0.00 in0.0 mm 0.00 in0.0 mm 0.19 in4.8 mm
10:39 PM 60.7°F15.9°C 88.6°F31.4°C - Calm Calm -- 30.08 in1018.6 mb 0.00 in0.0 mm 0.00 in0.0 mm 0.19 in4.8 mm
10:44 PM 60.8°F16.0°C 88.8°F31.6°C - Calm Calm -- 30.09 in1019.0 mb 0.00 in0.0 mm 0.00 in0.0 mm 0.19 in4.8 mm
10:49 PM 60.8°F16.0°C 88.7°F31.5°C - Calm Calm -- 30.09 in1019.0 mb 0.00 in0.0 mm 0.00 in0.0 mm 0.19 in4.8 mm
10:54 PM 60.8°F16.0°C 88.7°F31.5°C - Calm Calm -- 30.09 in1019.0 mb 0.00 in0.0 mm 0.00 in0.0 mm 0.19 in4.8 mm
11:05 PM 60.8°F16.0°C 88.7°F31.5°C - Calm Calm -- 30.09 in1019.0 mb 0.00 in0.0 mm 0.00 in0.0 mm 0.00 in0.0 mm
11:09 PM 60.8°F16.0°C 88.7°F31.5°C - Calm Calm -- 30.09 in1019.0 mb 0.00 in0.0 mm 0.00 in0.0 mm 0.00 in0.0 mm
11:14 PM 60.7°F15.9°C 88.7°F31.5°C - Calm Calm -- 30.09 in1019.0 mb 0.00 in0.0 mm 0.00 in0.0 mm 0.00 in0.0 mm
11:19 PM 60.6°F15.9°C 88.5°F31.4°C - Calm Calm -- 30.09 in1019.0 mb 0.00 in0.0 mm 0.00 in0.0 mm 0.00 in0.0 mm
11:24 PM 60.4°F15.8°C 88.3°F31.3°C - Calm Calm -- 30.09 in1019.0 mb 0.00 in0.0 mm 0.00 in0.0 mm 0.00 in0.0 mm
11:29 PM 60.2°F15.7°C 88.0°F31.1°C - Calm Calm -- 30.09 in1019.0 mb 0.00 in0.0 mm 0.00 in0.0 mm 0.00 in0.0 mm
11:34 PM 60.2°F15.7°C 88.0°F31.1°C - Calm Calm -- 30.09 in1019.0 mb 0.00 in0.0 mm 0.00 in0.0 mm 0.00 in0.0 mm
11:39 PM 60.2°F15.7°C 88.2°F31.2°C - Calm Calm -- 30.09 in1019.0 mb 0.00 in0.0 mm 0.00 in0.0 mm 0.00 in0.0 mm
11:44 PM 60.2°F15.7°C 88.2°F31.2°C - Calm Calm -- 30.09 in1019.0 mb 0.00 in0.0 mm 0.00 in0.0 mm 0.00 in0.0 mm
11:49 PM 60.1°F15.6°C 88.1°F31.2°C - Calm Calm -- 30.09 in1019.0 mb 0.00 in0.0 mm 0.00 in0.0 mm 0.00 in0.0 mm
11:55 PM 60.0°F15.6°C 87.9°F31.1°C - Calm Calm -- 30.09 in1019.0 mb 0.00 in0.0 mm 0.00 in0.0 mm 0.00 in0.0 mm
11:59 PM 60.0°F15.6°C 87.9°F31.1°C - Calm Calm -- 30.09 in1019.0 mb 0.00 in0.0 mm 0.00 in0.0 mm 0.00 in0.0 mm